Time;durP1;ratioP1;P1;durP2;ratioP2;P2;SDS_P1;SDS_P2;PMS_P1;PMS_P2;Temp;Humidity;BMP_temperature;BMP_pressure;BME280_temperature;BME280_humidity;BME280_pressure;Samples;Min_cycle;Max_cycle;Signal;HPM_P1;HPM_P2
2023/08/04 00:02:17;;;;;;;2.78;1.20;;;;;;;16.33;71.28;99373.53;31088942;28;97399;-61
2023/08/04 00:17:17;;;;;;;2.70;1.27;;;;;;;16.15;71.72;99387.00;31088031;28;105843;-62
2023/08/04 00:32:17;;;;;;;4.28;1.48;;;;;;;15.85;72.47;99383.22;31085942;28;97101;-62
2023/08/04 00:47:18;;;;;;;1.98;1.30;;;;;;;15.62;72.81;99378.50;31084545;28;111822;-64
2023/08/04 01:02:19;;;;;;;4.82;1.58;;;;;;;15.54;73.15;99379.63;31082458;28;97124;-62
2023/08/04 01:17:30;;;;;;;2.58;1.50;;;;;;;15.60;73.39;99395.91;31080994;28;115689;-61
2023/08/04 01:32:30;;;;;;;2.73;1.50;;;;;;;15.48;73.38;99414.59;31076843;28;97394;-63
2023/08/04 01:47:31;;;;;;;2.75;1.23;;;;;;;15.30;73.85;99410.00;31079649;28;97482;-62
2023/08/04 02:02:31;;;;;;;2.47;1.30;;;;;;;15.27;74.26;99402.38;31078279;28;97305;-62
2023/08/04 02:17:33;;;;;;;3.70;1.20;;;;;;;15.46;74.13;99411.28;31087790;28;115915;-63
2023/08/04 02:32:34;;;;;;;2.13;1.00;;;;;;;15.56;73.72;99449.19;31096826;28;97129;-62
2023/08/04 02:47:36;;;;;;;4.10;1.35;;;;;;;15.71;73.70;99444.28;31095445;28;105830;-65
2023/08/04 03:02:37;;;;;;;4.67;1.57;;;;;;;15.74;73.13;99468.00;31093677;28;97429;-61
2023/08/04 03:17:37;;;;;;;6.38;1.50;;;;;;;15.64;73.67;99472.25;31093148;28;96784;-65
2023/08/04 03:32:37;;;;;;;3.97;1.60;;;;;;;15.69;73.58;99483.13;31087981;28;105742;-64
2023/08/04 03:47:38;;;;;;;3.90;1.60;;;;;;;15.70;73.92;99482.09;31089289;28;104834;-61
2023/08/04 04:02:38;;;;;;;2.45;1.30;;;;;;;15.72;73.99;99485.41;31086759;28;97288;-61
2023/08/04 04:17:38;;;;;;;3.67;1.17;;;;;;;15.95;74.05;99505.44;31084799;28;98014;-62
2023/08/04 04:32:39;;;;;;;3.92;1.42;;;;;;;16.13;73.71;99526.13;31082019;28;98280;-64
2023/08/04 04:47:39;;;;;;;3.13;1.13;;;;;;;16.37;73.15;99519.84;31078152;28;104193;-62
2023/08/04 05:02:39;;;;;;;1.75;1.20;;;;;;;16.62;72.73;99528.88;31079535;28;108458;-62
2023/08/04 05:17:40;;;;;;;3.78;1.10;;;;;;;16.72;71.92;99534.53;31081333;28;117119;-62
2023/08/04 05:32:40;;;;;;;4.97;1.67;;;;;;;17.15;71.88;99581.19;31080827;28;115182;-62
2023/08/04 05:47:40;;;;;;;1.67;0.85;;;;;;;17.46;70.26;99569.34;31081599;28;110058;-64
2023/08/04 06:02:44;;;;;;;2.42;1.05;;;;;;;18.08;69.60;99565.44;31100205;28;97000;-64
2023/08/04 06:17:47;;;;;;;1.83;0.90;;;;;;;19.01;67.22;99581.69;31096192;28;97138;-62
2023/08/04 06:32:47;;;;;;;2.30;0.60;;;;;;;19.73;65.18;99609.16;31094890;28;97134;-64
2023/08/04 06:47:47;;;;;;;3.93;0.70;;;;;;;20.35;62.60;99600.09;31091513;28;97424;-63
2023/08/04 07:02:49;;;;;;;1.90;1.07;;;;;;;20.40;60.65;99642.66;31090373;28;114564;-64
2023/08/04 07:17:49;;;;;;;1.47;0.60;;;;;;;21.06;59.26;99650.03;31091223;28;97346;-62
2023/08/04 07:32:49;;;;;;;1.57;0.50;;;;;;;21.47;56.06;99656.72;31090209;28;112803;-63
2023/08/04 07:47:50;;;;;;;0.50;0.33;;;;;;;22.31;53.43;99670.75;31087973;28;97782;-63
2023/08/04 08:02:50;;;;;;;2.58;0.60;;;;;;;23.68;50.13;99674.63;31085998;28;113091;-65
2023/08/04 08:17:50;;;;;;;2.63;0.63;;;;;;;24.85;46.56;99670.19;31087023;28;97221;-64
2023/08/04 08:32:51;;;;;;;7.30;1.88;;;;;;;25.66;44.60;99673.59;31084446;28;107917;-63
2023/08/04 08:47:52;;;;;;;1.88;0.60;;;;;;;27.45;41.05;99674.00;31085322;28;97305;-63
2023/08/04 09:02:52;;;;;;;1.17;0.60;;;;;;;27.49;40.09;99689.53;31082129;28;96967;-64
2023/08/04 09:17:53;;;;;;;2.72;0.55;;;;;;;28.15;39.44;99688.81;31081638;28;97502;-63
2023/08/04 09:32:53;;;;;;;1.45;0.50;;;;;;;28.87;36.58;99701.22;31100243;28;97093;-64
2023/08/04 09:47:53;;;;;;;4.05;0.90;;;;;;;29.68;35.82;99675.88;31102290;28;97134;-63
2023/08/04 10:02:54;;;;;;;1.90;0.50;;;;;;;29.13;34.70;99684.22;31119515;28;111641;-67
2023/08/04 10:17:57;;;;;;;1.02;0.57;;;;;;;30.02;34.86;99666.28;31097834;28;97641;-67
2023/08/04 10:33:12;;;;;;;1.10;0.40;;;;;;;31.15;32.03;99656.94;31096860;28;97404;-66
2023/08/04 10:48:14;;;;;;;1.50;0.57;;;;;;;30.20;31.61;99666.41;31094366;28;96981;-66
2023/08/04 11:03:22;;;;;;;1.63;0.50;;;;;;;30.12;31.11;99669.91;31092418;28;98772;-66
2023/08/04 11:18:25;;;;;;;2.57;0.40;;;;;;;31.46;30.83;99677.97;31090502;28;96846;-65
2023/08/04 11:33:26;;;;;;;0.57;0.33;;;;;;;31.60;29.01;99693.56;31088538;28;97269;-67
2023/08/04 11:48:26;;;;;;;2.70;0.60;;;;;;;31.22;30.34;99698.50;31082306;28;97222;-68
2023/08/04 12:03:47;;;;;;;4.00;0.90;;;;;;;32.89;28.80;99692.78;31079023;28;97100;-65
2023/08/04 12:18:47;;;;;;;1.83;0.90;;;;;;;33.93;27.06;99690.44;31090282;28;97964;-65
2023/08/04 12:33:48;;;;;;;4.47;0.70;;;;;;;31.31;29.29;99679.25;31072201;28;97077;-67
2023/08/04 12:48:48;;;;;;;2.05;0.80;;;;;;;31.94;29.28;99698.22;31073756;28;97361;-65
2023/08/04 13:03:48;;;;;;;2.42;0.68;;;;;;;32.67;28.39;99704.84;31069135;28;97339;-65
2023/08/04 13:18:51;;;;;;;2.47;0.60;;;;;;;32.97;27.88;99740.78;31071311;28;97499;-66
2023/08/04 13:33:52;;;;;;;5.70;0.70;;;;;;;31.29;29.28;99755.81;31043016;28;97042;-66
2023/08/04 13:48:52;;;;;;;2.92;0.80;;;;;;;32.52;28.17;99755.81;31071420;28;96981;-66
2023/08/04 14:03:52;;;;;;;2.22;0.80;;;;;;;32.25;28.92;99751.50;31072542;28;97426;-65
2023/08/04 14:18:53;;;;;;;2.20;0.63;;;;;;;31.27;29.11;99752.56;31092732;28;97758;-66
2023/08/04 14:33:53;;;;;;;2.90;0.70;;;;;;;29.15;31.02;99764.25;31061691;28;104296;-66
2023/08/04 14:48:53;;;;;;;2.50;0.50;;;;;;;28.20;32.32;99749.78;31096715;28;105924;-66
2023/08/04 15:03:56;;;;;;;1.48;0.70;;;;;;;27.99;33.92;99748.44;31070822;28;107343;-68
2023/08/04 15:18:56;;;;;;;3.40;0.60;;;;;;;27.19;34.62;99751.69;31049485;28;98753;-67
2023/08/04 15:33:56;;;;;;;5.15;0.90;;;;;;;26.95;35.81;99745.41;31052939;28;98171;-67
2023/08/04 15:48:56;;;;;;;4.75;1.05;;;;;;;27.07;36.25;99740.34;31109238;28;97236;-65
2023/08/04 16:03:58;;;;;;;4.17;1.10;;;;;;;26.89;36.57;99728.25;31080539;28;97207;-65
2023/08/04 16:18:58;;;;;;;4.63;1.00;;;;;;;26.40;37.53;99729.28;31078242;28;117601;-65
2023/08/04 16:34:00;;;;;;;2.03;0.75;;;;;;;26.16;37.70;99752.69;31081426;28;107426;-66
2023/08/04 16:49:00;;;;;;;4.10;1.30;;;;;;;25.91;38.41;99753.63;31083446;28;96744;-65
2023/08/04 17:04:00;;;;;;;3.28;1.10;;;;;;;25.55;39.53;99742.97;31133512;28;105673;-67
2023/08/04 17:19:01;;;;;;;2.42;0.90;;;;;;;25.22;40.06;99739.81;31079530;28;112792;-68
2023/08/04 17:34:01;;;;;;;2.85;1.00;;;;;;;24.86;40.89;99731.75;31078521;28;96779;-68
2023/08/04 17:49:01;;;;;;;3.17;1.25;;;;;;;24.46;42.26;99755.22;31089521;28;97163;-65
2023/08/04 18:04:04;;;;;;;5.32;1.30;;;;;;;24.06;43.19;99762.25;31097946;28;106120;-68
2023/08/04 18:19:04;;;;;;;10.63;1.73;;;;;;;23.70;44.55;99779.28;31098015;28;97194;-70
2023/08/04 18:34:05;;;;;;;3.58;1.35;;;;;;;23.28;45.61;99791.13;31095040;28;100733;-68
2023/08/04 18:49:05;;;;;;;4.00;1.58;;;;;;;22.91;47.21;99817.22;31096436;28;109521;-68
2023/08/04 19:04:05;;;;;;;3.63;1.60;;;;;;;22.65;47.94;99822.47;31094936;28;101183;-67
2023/08/04 19:19:05;;;;;;;;;;;;;;;22.44;48.98;99832.34;31093754;28;110899;-69
2023/08/04 19:34:06;;;;;;;4.10;2.30;;;;;;;22.29;49.50;99834.88;31179437;28;97239;-66
2023/08/04 19:49:06;;;;;;;4.45;2.03;;;;;;;22.12;50.46;99872.97;31082712;28;97211;-65
2023/08/04 20:04:06;;;;;;;4.60;2.13;;;;;;;21.91;51.44;99861.03;31081001;28;96764;-66
2023/08/04 20:19:07;;;;;;;5.82;4.05;;;;;;;21.73;52.12;99878.47;31057328;28;97297;-63
2023/08/04 20:34:07;;;;;;;5.50;2.30;;;;;;;21.61;52.85;99886.69;31065753;28;113172;-67
2023/08/04 20:49:08;;;;;;;7.25;2.70;;;;;;;21.52;53.38;99896.31;31060904;28;97297;-67
2023/08/04 21:04:08;;;;;;;4.80;2.77;;;;;;;21.41;53.86;99885.31;31060707;28;97161;-66
2023/08/04 21:19:08;;;;;;;4.73;2.47;;;;;;;21.33;54.07;99885.75;31069022;28;102932;-63
2023/08/04 21:34:08;;;;;;;5.00;2.53;;;;;;;21.24;54.39;99890.78;31074828;28;115953;-62
2023/08/04 21:49:09;;;;;;;4.47;2.43;;;;;;;21.11;54.84;99891.13;31073826;28;108684;-63
2023/08/04 22:04:09;;;;;;;9.77;2.93;;;;;;;20.98;55.47;99886.84;31073184;28;97303;-64
2023/08/04 22:19:09;;;;;;;5.03;3.20;;;;;;;20.81;56.09;99889.56;31071675;28;115664;-62
2023/08/04 22:34:10;;;;;;;10.70;6.43;;;;;;;20.73;56.33;99879.16;31081892;28;96810;-63
2023/08/04 22:49:10;;;;;;;4.63;2.80;;;;;;;20.62;56.90;99867.28;31090148;28;111822;-69
2023/08/04 23:04:10;;;;;;;7.23;2.97;;;;;;;20.57;57.17;99854.50;31078537;28;103593;-62
2023/08/04 23:19:11;;;;;;;9.40;5.50;;;;;;;20.53;57.40;99869.59;31087071;28;97039;-63
2023/08/04 23:34:11;;;;;;;7.17;3.40;;;;;;;20.50;57.35;99880.88;31085713;28;112878;-64
2023/08/04 23:49:11;;;;;;;6.97;2.97;;;;;;;20.32;57.70;99873.00;31084113;28;116601;-63
